Archival Weather

Pemba

Pemba, Mozambique (FQPB)

Report from: Saturday, April 1, 2023 5:00 AM CAT
Current time: Friday, April 19, 2024 10:57 AM CAT

Current weather – Weather history – Daily summaries
Weather forecast

Temperature23.0°C (73.4°F)
Dew point22.0°C (71.6°F)
Winds 6 kts (3.1 m/s, 6.9 mph) West-Southwest (240°)
Visibility6.2 mi. (10 km)
Clouds Ceiling: Broken clouds 0 ft. (0 m)
Few clouds 2,000 ft. (610 m)
Altimeter29.88 in.Hg (1012 mB)
Relative humidity94 %
Density altitude1,328 ft. (405 m)
Flight conditions Low Instrument Meteorological Conditions
Raw dataFQPB 010300Z 24006KT 9999 FEW020 BKN/// 23/22 Q1012
An error has occurred. This application may no longer respond until reloaded. Reload 🗙